sensor_id;sensor_type;location;lat;lon;timestamp;P1;durP1;ratioP1;P2;durP2;ratioP2
4547;SDS011;2286;51.570;7.090;2024-03-23T00:52:03;0.40;;;0.30;;
4547;SDS011;2286;51.570;7.090;2024-03-23T00:54:29;0.40;;;0.30;;
4547;SDS011;2286;51.570;7.090;2024-03-23T00:56:56;0.40;;;0.30;;
4547;SDS011;2286;51.570;7.090;2024-03-23T00:59:22;0.33;;;0.30;;
4547;SDS011;2286;51.570;7.090;2024-03-23T01:01:52;3.10;;;1.80;;
4547;SDS011;2286;51.570;7.090;2024-03-23T01:04:18;0.40;;;0.30;;
4547;SDS011;2286;51.570;7.090;2024-03-23T01:06:45;0.40;;;0.40;;
4547;SDS011;2286;51.570;7.090;2024-03-23T01:09:12;0.40;;;0.40;;
4547;SDS011;2286;51.570;7.090;2024-03-23T01:11:38;0.40;;;0.30;;
4547;SDS011;2286;51.570;7.090;2024-03-23T01:14:04;0.90;;;0.90;;
4547;SDS011;2286;51.570;7.090;2024-03-23T01:16:31;0.40;;;0.33;;
4547;SDS011;2286;51.570;7.090;2024-03-23T01:18:57;0.30;;;0.30;;
4547;SDS011;2286;51.570;7.090;2024-03-23T01:21:24;0.60;;;0.60;;
4547;SDS011;2286;51.570;7.090;2024-03-23T01:23:50;0.80;;;0.80;;
4547;SDS011;2286;51.570;7.090;2024-03-23T01:26:18;0.50;;;0.50;;
4547;SDS011;2286;51.570;7.090;2024-03-23T01:28:43;0.53;;;0.50;;
4547;SDS011;2286;51.570;7.090;2024-03-23T01:31:10;0.40;;;0.30;;
4547;SDS011;2286;51.570;7.090;2024-03-23T01:33:36;0.40;;;0.30;;
4547;SDS011;2286;51.570;7.090;2024-03-23T01:36:03;0.90;;;0.90;;
4547;SDS011;2286;51.570;7.090;2024-03-23T01:38:30;0.40;;;0.30;;
4547;SDS011;2286;51.570;7.090;2024-03-23T01:40:56;0.40;;;0.30;;
4547;SDS011;2286;51.570;7.090;2024-03-23T01:43:24;0.40;;;0.40;;
4547;SDS011;2286;51.570;7.090;2024-03-23T01:45:51;0.40;;;0.40;;
4547;SDS011;2286;51.570;7.090;2024-03-23T01:48:18;0.40;;;0.30;;
4547;SDS011;2286;51.570;7.090;2024-03-23T01:50:45;0.40;;;0.30;;
4547;SDS011;2286;51.570;7.090;2024-03-23T01:53:11;0.40;;;0.30;;
4547;SDS011;2286;51.570;7.090;2024-03-23T01:55:42;0.40;;;0.30;;
4547;SDS011;2286;51.570;7.090;2024-03-23T01:58:08;0.90;;;0.90;;
4547;SDS011;2286;51.570;7.090;2024-03-23T02:00:36;0.40;;;0.30;;
4547;SDS011;2286;51.570;7.090;2024-03-23T02:03:02;0.40;;;0.30;;
4547;SDS011;2286;51.570;7.090;2024-03-23T02:05:47;0.40;;;0.33;;
4547;SDS011;2286;51.570;7.090;2024-03-23T02:08:13;0.40;;;0.30;;
4547;SDS011;2286;51.570;7.090;2024-03-23T02:10:40;0.40;;;0.30;;
4547;SDS011;2286;51.570;7.090;2024-03-23T02:13:07;0.40;;;0.30;;
4547;SDS011;2286;51.570;7.090;2024-03-23T02:15:35;0.60;;;0.60;;
4547;SDS011;2286;51.570;7.090;2024-03-23T02:18:01;0.40;;;0.40;;
4547;SDS011;2286;51.570;7.090;2024-03-23T02:20:28;0.40;;;0.30;;
4547;SDS011;2286;51.570;7.090;2024-03-23T02:22:55;0.40;;;0.30;;
4547;SDS011;2286;51.570;7.090;2024-03-23T02:25:22;0.40;;;0.30;;
4547;SDS011;2286;51.570;7.090;2024-03-23T02:27:48;0.40;;;0.30;;
4547;SDS011;2286;51.570;7.090;2024-03-23T02:30:14;0.33;;;0.30;;
4547;SDS011;2286;51.570;7.090;2024-03-23T02:32:40;0.40;;;0.30;;
4547;SDS011;2286;51.570;7.090;2024-03-23T02:35:07;0.40;;;0.30;;
4547;SDS011;2286;51.570;7.090;2024-03-23T02:37:33;0.40;;;0.30;;
4547;SDS011;2286;51.570;7.090;2024-03-23T02:40:01;0.40;;;0.30;;
4547;SDS011;2286;51.570;7.090;2024-03-23T02:42:27;0.40;;;0.30;;
4547;SDS011;2286;51.570;7.090;2024-03-23T02:44:54;1.53;;;1.43;;
4547;SDS011;2286;51.570;7.090;2024-03-23T02:47:19;0.40;;;0.30;;
4547;SDS011;2286;51.570;7.090;2024-03-23T02:49:46;0.30;;;0.30;;
4547;SDS011;2286;51.570;7.090;2024-03-23T02:52:12;0.40;;;0.30;;
4547;SDS011;2286;51.570;7.090;2024-03-23T02:54:39;0.43;;;0.43;;
4547;SDS011;2286;51.570;7.090;2024-03-23T02:57:08;0.40;;;0.30;;
4547;SDS011;2286;51.570;7.090;2024-03-23T02:59:35;0.40;;;0.37;;
4547;SDS011;2286;51.570;7.090;2024-03-23T03:02:01;0.60;;;0.60;;
4547;SDS011;2286;51.570;7.090;2024-03-23T03:04:29;0.40;;;0.40;;
4547;SDS011;2286;51.570;7.090;2024-03-23T03:06:55;0.40;;;0.30;;
4547;SDS011;2286;51.570;7.090;2024-03-23T03:09:22;0.40;;;0.30;;
4547;SDS011;2286;51.570;7.090;2024-03-23T03:11:48;0.40;;;0.30;;
4547;SDS011;2286;51.570;7.090;2024-03-23T03:14:16;0.73;;;0.73;;
4547;SDS011;2286;51.570;7.090;2024-03-23T03:16:42;0.40;;;0.30;;
4547;SDS011;2286;51.570;7.090;2024-03-23T03:19:09;0.33;;;0.30;;
4547;SDS011;2286;51.570;7.090;2024-03-23T03:21:35;0.40;;;0.30;;
4547;SDS011;2286;51.570;7.090;2024-03-23T03:24:03;0.40;;;0.30;;
4547;SDS011;2286;51.570;7.090;2024-03-23T03:26:31;0.40;;;0.30;;
4547;SDS011;2286;51.570;7.090;2024-03-23T03:28:57;0.40;;;0.30;;
4547;SDS011;2286;51.570;7.090;2024-03-23T03:31:25;0.40;;;0.30;;
4547;SDS011;2286;51.570;7.090;2024-03-23T03:33:51;0.40;;;0.30;;
4547;SDS011;2286;51.570;7.090;2024-03-23T03:36:17;0.40;;;0.37;;
4547;SDS011;2286;51.570;7.090;2024-03-23T03:38:44;0.40;;;0.30;;
4547;SDS011;2286;51.570;7.090;2024-03-23T03:41:10;0.40;;;0.30;;
4547;SDS011;2286;51.570;7.090;2024-03-23T03:43:37;0.57;;;0.57;;
4547;SDS011;2286;51.570;7.090;2024-03-23T03:46:03;0.40;;;0.30;;
4547;SDS011;2286;51.570;7.090;2024-03-23T03:48:31;0.40;;;0.40;;
4547;SDS011;2286;51.570;7.090;2024-03-23T03:50:57;0.60;;;0.60;;
4547;SDS011;2286;51.570;7.090;2024-03-23T03:53:24;0.70;;;0.70;;
4547;SDS011;2286;51.570;7.090;2024-03-23T03:55:49;0.40;;;0.30;;
4547;SDS011;2286;51.570;7.090;2024-03-23T03:58:16;0.40;;;0.30;;
4547;SDS011;2286;51.570;7.090;2024-03-23T04:00:42;0.77;;;0.77;;
4547;SDS011;2286;51.570;7.090;2024-03-23T04:03:09;0.40;;;0.40;;
4547;SDS011;2286;51.570;7.090;2024-03-23T04:05:36;0.40;;;0.30;;
4547;SDS011;2286;51.570;7.090;2024-03-23T04:08:04;0.40;;;0.30;;
4547;SDS011;2286;51.570;7.090;2024-03-23T04:10:31;2.00;;;1.90;;
4547;SDS011;2286;51.570;7.090;2024-03-23T04:12:57;0.43;;;0.43;;
4547;SDS011;2286;51.570;7.090;2024-03-23T04:15:23;0.40;;;0.40;;
4547;SDS011;2286;51.570;7.090;2024-03-23T04:17:50;0.40;;;0.30;;
4547;SDS011;2286;51.570;7.090;2024-03-23T04:20:16;0.40;;;0.30;;
4547;SDS011;2286;51.570;7.090;2024-03-23T04:22:44;8.33;;;3.00;;
4547;SDS011;2286;51.570;7.090;2024-03-23T04:25:10;0.40;;;0.30;;
4547;SDS011;2286;51.570;7.090;2024-03-23T04:27:38;0.40;;;0.30;;
4547;SDS011;2286;51.570;7.090;2024-03-23T04:30:04;0.40;;;0.30;;
4547;SDS011;2286;51.570;7.090;2024-03-23T04:32:35;1.33;;;1.23;;
4547;SDS011;2286;51.570;7.090;2024-03-23T04:35:01;0.60;;;0.60;;
4547;SDS011;2286;51.570;7.090;2024-03-23T04:37:30;0.60;;;0.60;;
4547;SDS011;2286;51.570;7.090;2024-03-23T04:39:59;0.40;;;0.40;;
4547;SDS011;2286;51.570;7.090;2024-03-23T04:42:26;0.40;;;0.40;;
4547;SDS011;2286;51.570;7.090;2024-03-23T04:44:53;0.40;;;0.30;;
4547;SDS011;2286;51.570;7.090;2024-03-23T04:47:20;1.90;;;1.80;;
4547;SDS011;2286;51.570;7.090;2024-03-23T04:49:47;4.83;;;1.90;;
4547;SDS011;2286;51.570;7.090;2024-03-23T04:52:16;0.40;;;0.30;;
4547;SDS011;2286;51.570;7.090;2024-03-23T04:54:43;0.33;;;0.30;;
4547;SDS011;2286;51.570;7.090;2024-03-23T04:57:11;0.40;;;0.30;;
4547;SDS011;2286;51.570;7.090;2024-03-23T04:59:39;0.40;;;0.30;;
4547;SDS011;2286;51.570;7.090;2024-03-23T05:02:05;0.40;;;0.40;;
4547;SDS011;2286;51.570;7.090;2024-03-23T05:04:32;0.40;;;0.40;;
4547;SDS011;2286;51.570;7.090;2024-03-23T05:06:57;0.40;;;0.30;;
4547;SDS011;2286;51.570;7.090;2024-03-23T05:09:24;1.20;;;1.07;;
4547;SDS011;2286;51.570;7.090;2024-03-23T05:11:55;12.33;;;7.00;;
4547;SDS011;2286;51.570;7.090;2024-03-23T05:14:23;15.43;;;6.50;;
4547;SDS011;2286;51.570;7.090;2024-03-23T05:16:49;14.43;;;6.83;;
4547;SDS011;2286;51.570;7.090;2024-03-23T05:19:16;17.43;;;7.53;;
4547;SDS011;2286;51.570;7.090;2024-03-23T05:21:42;14.20;;;6.80;;
4547;SDS011;2286;51.570;7.090;2024-03-23T05:24:09;16.20;;;8.13;;
4547;SDS011;2286;51.570;7.090;2024-03-23T05:26:35;16.70;;;7.07;;
4547;SDS011;2286;51.570;7.090;2024-03-23T05:29:02;20.13;;;9.07;;
4547;SDS011;2286;51.570;7.090;2024-03-23T05:31:30;20.93;;;8.57;;
4547;SDS011;2286;51.570;7.090;2024-03-23T05:33:57;17.53;;;7.70;;
4547;SDS011;2286;51.570;7.090;2024-03-23T05:36:23;13.03;;;7.80;;
4547;SDS011;2286;51.570;7.090;2024-03-23T05:38:50;13.97;;;7.90;;
4547;SDS011;2286;51.570;7.090;2024-03-23T05:41:16;17.87;;;8.90;;
4547;SDS011;2286;51.570;7.090;2024-03-23T05:43:43;17.67;;;10.33;;
4547;SDS011;2286;51.570;7.090;2024-03-23T05:46:09;18.20;;;8.87;;
4547;SDS011;2286;51.570;7.090;2024-03-23T05:48:37;19.63;;;8.87;;
4547;SDS011;2286;51.570;7.090;2024-03-23T05:51:03;14.80;;;9.33;;
4547;SDS011;2286;51.570;7.090;2024-03-23T05:53:30;19.57;;;10.07;;
4547;SDS011;2286;51.570;7.090;2024-03-23T05:56:00;19.43;;;8.80;;
4547;SDS011;2286;51.570;7.090;2024-03-23T05:58:30;14.93;;;8.63;;
4547;SDS011;2286;51.570;7.090;2024-03-23T06:00:59;18.30;;;9.70;;
4547;SDS011;2286;51.570;7.090;2024-03-23T06:03:27;18.97;;;10.20;;
4547;SDS011;2286;51.570;7.090;2024-03-23T06:05:55;18.80;;;10.80;;
4547;SDS011;2286;51.570;7.090;2024-03-23T06:08:22;20.63;;;9.47;;
4547;SDS011;2286;51.570;7.090;2024-03-23T06:10:49;22.40;;;11.30;;
4547;SDS011;2286;51.570;7.090;2024-03-23T06:13:16;22.13;;;11.33;;
4547;SDS011;2286;51.570;7.090;2024-03-23T06:15:42;22.67;;;10.13;;
4547;SDS011;2286;51.570;7.090;2024-03-23T06:18:11;18.30;;;11.00;;
4547;SDS011;2286;51.570;7.090;2024-03-23T06:20:37;19.43;;;10.53;;
4547;SDS011;2286;51.570;7.090;2024-03-23T06:23:06;18.30;;;10.10;;
4547;SDS011;2286;51.570;7.090;2024-03-23T06:25:32;17.70;;;10.50;;
4547;SDS011;2286;51.570;7.090;2024-03-23T06:27:59;22.47;;;10.50;;
4547;SDS011;2286;51.570;7.090;2024-03-23T06:30:26;25.57;;;10.30;;
4547;SDS011;2286;51.570;7.090;2024-03-23T06:32:54;16.37;;;9.50;;
4547;SDS011;2286;51.570;7.090;2024-03-23T06:35:20;24.03;;;10.40;;
4547;SDS011;2286;51.570;7.090;2024-03-23T06:37:47;17.40;;;9.73;;
4547;SDS011;2286;51.570;7.090;2024-03-23T06:40:14;23.00;;;10.33;;
4547;SDS011;2286;51.570;7.090;2024-03-23T06:42:41;22.17;;;9.90;;
4547;SDS011;2286;51.570;7.090;2024-03-23T06:45:07;14.80;;;8.37;;
4547;SDS011;2286;51.570;7.090;2024-03-23T06:47:35;11.73;;;8.40;;
4547;SDS011;2286;51.570;7.090;2024-03-23T06:50:01;14.47;;;7.50;;
4547;SDS011;2286;51.570;7.090;2024-03-23T06:52:28;18.60;;;9.47;;
4547;SDS011;2286;51.570;7.090;2024-03-23T06:54:55;20.83;;;8.03;;
4547;SDS011;2286;51.570;7.090;2024-03-23T06:57:23;14.10;;;7.80;;
4547;SDS011;2286;51.570;7.090;2024-03-23T06:59:49;14.33;;;8.10;;
4547;SDS011;2286;51.570;7.090;2024-03-23T07:02:16;22.47;;;8.93;;
4547;SDS011;2286;51.570;7.090;2024-03-23T07:04:42;24.60;;;10.43;;
4547;SDS011;2286;51.570;7.090;2024-03-23T07:07:09;16.93;;;8.77;;
4547;SDS011;2286;51.570;7.090;2024-03-23T07:09:35;18.60;;;9.10;;
4547;SDS011;2286;51.570;7.090;2024-03-23T07:12:03;15.03;;;7.97;;
4547;SDS011;2286;51.570;7.090;2024-03-23T07:14:31;16.53;;;7.53;;
4547;SDS011;2286;51.570;7.090;2024-03-23T07:16:58;15.50;;;9.20;;
4547;SDS011;2286;51.570;7.090;2024-03-23T07:19:24;17.10;;;9.00;;
4547;SDS011;2286;51.570;7.090;2024-03-23T07:21:50;17.63;;;8.77;;
4547;SDS011;2286;51.570;7.090;2024-03-23T07:24:16;20.07;;;8.90;;
4547;SDS011;2286;51.570;7.090;2024-03-23T07:26:43;18.20;;;8.43;;
4547;SDS011;2286;51.570;7.090;2024-03-23T07:29:09;20.57;;;8.27;;
4547;SDS011;2286;51.570;7.090;2024-03-23T07:31:37;17.00;;;9.30;;
4547;SDS011;2286;51.570;7.090;2024-03-23T07:34:04;14.00;;;7.80;;
4547;SDS011;2286;51.570;7.090;2024-03-23T07:36:30;17.13;;;7.70;;
4547;SDS011;2286;51.570;7.090;2024-03-23T07:38:56;16.83;;;7.37;;
4547;SDS011;2286;51.570;7.090;2024-03-23T07:41:23;14.13;;;7.40;;
4547;SDS011;2286;51.570;7.090;2024-03-23T07:43:49;13.70;;;7.03;;
4547;SDS011;2286;51.570;7.090;2024-03-23T07:46:16;16.37;;;7.60;;
4547;SDS011;2286;51.570;7.090;2024-03-23T07:48:45;21.27;;;8.13;;
4547;SDS011;2286;51.570;7.090;2024-03-23T07:51:13;11.27;;;5.60;;
4547;SDS011;2286;51.570;7.090;2024-03-23T07:53:42;13.57;;;5.77;;
4547;SDS011;2286;51.570;7.090;2024-03-23T07:56:10;9.40;;;5.40;;
4547;SDS011;2286;51.570;7.090;2024-03-23T07:58:36;19.40;;;5.80;;
4547;SDS011;2286;51.570;7.090;2024-03-23T08:01:04;12.57;;;5.80;;
4547;SDS011;2286;51.570;7.090;2024-03-23T08:03:33;15.43;;;6.57;;
4547;SDS011;2286;51.570;7.090;2024-03-23T08:06:07;17.07;;;6.37;;
4547;SDS011;2286;51.570;7.090;2024-03-23T08:08:35;14.40;;;5.67;;
4547;SDS011;2286;51.570;7.090;2024-03-23T08:11:01;14.70;;;5.53;;
4547;SDS011;2286;51.570;7.090;2024-03-23T08:13:29;18.80;;;6.50;;
4547;SDS011;2286;51.570;7.090;2024-03-23T08:15:56;15.97;;;5.77;;
4547;SDS011;2286;51.570;7.090;2024-03-23T08:18:23;12.63;;;5.67;;
4547;SDS011;2286;51.570;7.090;2024-03-23T08:20:55;21.47;;;6.10;;
4547;SDS011;2286;51.570;7.090;2024-03-23T08:23:24;13.13;;;4.97;;
4547;SDS011;2286;51.570;7.090;2024-03-23T08:25:50;15.77;;;5.67;;
4547;SDS011;2286;51.570;7.090;2024-03-23T08:28:17;12.90;;;5.80;;
4547;SDS011;2286;51.570;7.090;2024-03-23T08:30:44;12.00;;;4.87;;
4547;SDS011;2286;51.570;7.090;2024-03-23T08:33:11;14.50;;;5.73;;
4547;SDS011;2286;51.570;7.090;2024-03-23T08:35:36;15.60;;;5.37;;
4547;SDS011;2286;51.570;7.090;2024-03-23T08:38:04;13.87;;;5.67;;
4547;SDS011;2286;51.570;7.090;2024-03-23T08:40:32;16.63;;;5.67;;
4547;SDS011;2286;51.570;7.090;2024-03-23T08:42:58;15.17;;;5.77;;
4547;SDS011;2286;51.570;7.090;2024-03-23T08:45:25;11.50;;;5.13;;
4547;SDS011;2286;51.570;7.090;2024-03-23T08:47:51;12.90;;;6.07;;
4547;SDS011;2286;51.570;7.090;2024-03-23T08:50:17;13.10;;;5.47;;
4547;SDS011;2286;51.570;7.090;2024-03-23T08:52:44;12.73;;;4.63;;
4547;SDS011;2286;51.570;7.090;2024-03-23T08:55:10;14.00;;;5.50;;
4547;SDS011;2286;51.570;7.090;2024-03-23T08:57:38;12.10;;;3.90;;
4547;SDS011;2286;51.570;7.090;2024-03-23T09:00:05;9.20;;;4.43;;
4547;SDS011;2286;51.570;7.090;2024-03-23T09:02:34;14.43;;;5.73;;
4547;SDS011;2286;51.570;7.090;2024-03-23T09:05:00;10.47;;;3.83;;
4547;SDS011;2286;51.570;7.090;2024-03-23T09:07:29;9.27;;;4.00;;
4547;SDS011;2286;51.570;7.090;2024-03-23T09:09:55;11.13;;;3.90;;
4547;SDS011;2286;51.570;7.090;2024-03-23T09:12:22;13.50;;;3.53;;
4547;SDS011;2286;51.570;7.090;2024-03-23T09:14:50;7.70;;;3.30;;
4547;SDS011;2286;51.570;7.090;2024-03-23T09:17:18;10.90;;;4.07;;
4547;SDS011;2286;51.570;7.090;2024-03-23T09:19:44;6.90;;;3.10;;
4547;SDS011;2286;51.570;7.090;2024-03-23T09:22:11;5.60;;;3.10;;
4547;SDS011;2286;51.570;7.090;2024-03-23T09:24:38;6.47;;;2.80;;
4547;SDS011;2286;51.570;7.090;2024-03-23T09:27:05;7.00;;;2.73;;
4547;SDS011;2286;51.570;7.090;2024-03-23T09:29:31;6.93;;;2.80;;
4547;SDS011;2286;51.570;7.090;2024-03-23T09:31:59;8.73;;;2.90;;
4547;SDS011;2286;51.570;7.090;2024-03-23T09:34:25;4.03;;;2.60;;
4547;SDS011;2286;51.570;7.090;2024-03-23T09:36:52;11.87;;;2.90;;
4547;SDS011;2286;51.570;7.090;2024-03-23T09:39:18;5.23;;;2.63;;
4547;SDS011;2286;51.570;7.090;2024-03-23T09:41:45;12.47;;;2.90;;
4547;SDS011;2286;51.570;7.090;2024-03-23T09:44:11;8.17;;;2.33;;
4547;SDS011;2286;51.570;7.090;2024-03-23T09:46:38;5.37;;;2.90;;
4547;SDS011;2286;51.570;7.090;2024-03-23T09:49:06;5.87;;;2.33;;
4547;SDS011;2286;51.570;7.090;2024-03-23T09:51:35;9.60;;;3.40;;
4547;SDS011;2286;51.570;7.090;2024-03-23T09:54:01;7.33;;;2.50;;
4547;SDS011;2286;51.570;7.090;2024-03-23T09:56:28;6.53;;;2.53;;
4547;SDS011;2286;51.570;7.090;2024-03-23T09:58:59;7.10;;;2.63;;
4547;SDS011;2286;51.570;7.090;2024-03-23T10:01:27;10.77;;;3.40;;
4547;SDS011;2286;51.570;7.090;2024-03-23T10:03:55;6.23;;;3.10;;
4547;SDS011;2286;51.570;7.090;2024-03-23T10:06:23;6.43;;;2.80;;
4547;SDS011;2286;51.570;7.090;2024-03-23T10:08:50;9.10;;;2.70;;
4547;SDS011;2286;51.570;7.090;2024-03-23T10:11:18;6.20;;;2.80;;
4547;SDS011;2286;51.570;7.090;2024-03-23T10:13:44;4.60;;;2.73;;
4547;SDS011;2286;51.570;7.090;2024-03-23T10:16:12;4.87;;;2.40;;
4547;SDS011;2286;51.570;7.090;2024-03-23T10:18:47;6.37;;;2.70;;
4547;SDS011;2286;51.570;7.090;2024-03-23T10:21:14;6.90;;;2.70;;
4547;SDS011;2286;51.570;7.090;2024-03-23T10:23:42;10.83;;;1.87;;
4547;SDS011;2286;51.570;7.090;2024-03-23T10:26:14;5.37;;;1.60;;
4547;SDS011;2286;51.570;7.090;2024-03-23T10:28:51;6.10;;;1.90;;
4547;SDS011;2286;51.570;7.090;2024-03-23T10:31:18;5.43;;;2.27;;
4547;SDS011;2286;51.570;7.090;2024-03-23T10:33:45;9.43;;;2.83;;
4547;SDS011;2286;51.570;7.090;2024-03-23T10:36:13;4.57;;;1.87;;
4547;SDS011;2286;51.570;7.090;2024-03-23T10:38:39;9.50;;;2.07;;
4547;SDS011;2286;51.570;7.090;2024-03-23T10:41:09;4.40;;;1.90;;
4547;SDS011;2286;51.570;7.090;2024-03-23T10:43:36;3.37;;;1.80;;
4547;SDS011;2286;51.570;7.090;2024-03-23T10:46:03;7.07;;;1.97;;
4547;SDS011;2286;51.570;7.090;2024-03-23T10:48:29;4.53;;;2.23;;
4547;SDS011;2286;51.570;7.090;2024-03-23T10:50:57;4.37;;;1.67;;
4547;SDS011;2286;51.570;7.090;2024-03-23T10:53:25;4.40;;;1.77;;
4547;SDS011;2286;51.570;7.090;2024-03-23T10:55:54;8.27;;;1.90;;
4547;SDS011;2286;51.570;7.090;2024-03-23T10:58:23;7.83;;;1.80;;
4547;SDS011;2286;51.570;7.090;2024-03-23T11:00:52;4.63;;;1.50;;
4547;SDS011;2286;51.570;7.090;2024-03-23T11:06:02;4.40;;;1.80;;
4547;SDS011;2286;51.570;7.090;2024-03-23T11:08:32;6.97;;;2.13;;
4547;SDS011;2286;51.570;7.090;2024-03-23T11:11:16;0.40;;;0.30;;
4547;SDS011;2286;51.570;7.090;2024-03-23T11:13:47;0.40;;;0.30;;
4547;SDS011;2286;51.570;7.090;2024-03-23T11:16:15;0.40;;;0.30;;
4547;SDS011;2286;51.570;7.090;2024-03-23T11:18:42;0.40;;;0.30;;
4547;SDS011;2286;51.570;7.090;2024-03-23T11:21:10;0.40;;;0.30;;
4547;SDS011;2286;51.570;7.090;2024-03-23T11:26:41;0.40;;;0.30;;
4547;SDS011;2286;51.570;7.090;2024-03-23T11:29:11;0.40;;;0.40;;
4547;SDS011;2286;51.570;7.090;2024-03-23T11:31:39;0.40;;;0.30;;
4547;SDS011;2286;51.570;7.090;2024-03-23T11:34:11;0.60;;;0.60;;
4547;SDS011;2286;51.570;7.090;2024-03-23T11:36:38;0.40;;;0.30;;
4547;SDS011;2286;51.570;7.090;2024-03-23T11:39:11;0.40;;;0.30;;
4547;SDS011;2286;51.570;7.090;2024-03-23T11:41:47;0.40;;;0.30;;
4547;SDS011;2286;51.570;7.090;2024-03-23T11:44:15;0.40;;;0.40;;
4547;SDS011;2286;51.570;7.090;2024-03-23T11:46:43;0.40;;;0.30;;
4547;SDS011;2286;51.570;7.090;2024-03-23T11:49:19;0.40;;;0.30;;
4547;SDS011;2286;51.570;7.090;2024-03-23T11:51:49;0.40;;;0.40;;
4547;SDS011;2286;51.570;7.090;2024-03-23T11:54:15;4.37;;;2.30;;
4547;SDS011;2286;51.570;7.090;2024-03-23T11:56:53;4.97;;;2.10;;
4547;SDS011;2286;51.570;7.090;2024-03-23T11:59:31;3.73;;;2.10;;
4547;SDS011;2286;51.570;7.090;2024-03-23T12:02:05;5.90;;;2.07;;
4547;SDS011;2286;51.570;7.090;2024-03-23T12:04:32;6.13;;;1.73;;
4547;SDS011;2286;51.570;7.090;2024-03-23T12:07:11;5.60;;;2.23;;
4547;SDS011;2286;51.570;7.090;2024-03-23T12:09:37;4.43;;;2.60;;
4547;SDS011;2286;51.570;7.090;2024-03-23T12:12:08;8.07;;;2.50;;
4547;SDS011;2286;51.570;7.090;2024-03-23T12:14:37;9.17;;;2.63;;
4547;SDS011;2286;51.570;7.090;2024-03-23T12:17:08;6.80;;;2.80;;
4547;SDS011;2286;51.570;7.090;2024-03-23T12:19:35;3.63;;;2.10;;
4547;SDS011;2286;51.570;7.090;2024-03-23T12:22:03;3.90;;;1.60;;
4547;SDS011;2286;51.570;7.090;2024-03-23T12:24:30;1.77;;;1.43;;
4547;SDS011;2286;51.570;7.090;2024-03-23T12:26:59;1.30;;;1.17;;
4547;SDS011;2286;51.570;7.090;2024-03-23T12:29:26;1.60;;;1.20;;
4547;SDS011;2286;51.570;7.090;2024-03-23T12:31:55;3.10;;;1.13;;
4547;SDS011;2286;51.570;7.090;2024-03-23T12:34:21;3.93;;;1.53;;
4547;SDS011;2286;51.570;7.090;2024-03-23T12:36:48;2.90;;;1.20;;
4547;SDS011;2286;51.570;7.090;2024-03-23T12:39:14;2.70;;;1.50;;
4547;SDS011;2286;51.570;7.090;2024-03-23T12:41:41;2.90;;;1.60;;
4547;SDS011;2286;51.570;7.090;2024-03-23T12:44:07;4.47;;;1.33;;
4547;SDS011;2286;51.570;7.090;2024-03-23T12:46:36;3.33;;;1.00;;
4547;SDS011;2286;51.570;7.090;2024-03-23T12:49:04;4.47;;;1.47;;
4547;SDS011;2286;51.570;7.090;2024-03-23T12:51:31;5.43;;;1.43;;
4547;SDS011;2286;51.570;7.090;2024-03-23T12:53:57;2.53;;;1.00;;
4547;SDS011;2286;51.570;7.090;2024-03-23T12:56:24;4.03;;;1.23;;
4547;SDS011;2286;51.570;7.090;2024-03-23T12:58:49;2.97;;;1.37;;
4547;SDS011;2286;51.570;7.090;2024-03-23T13:01:18;1.70;;;1.10;;
4547;SDS011;2286;51.570;7.090;2024-03-23T13:03:45;8.97;;;1.40;;
4547;SDS011;2286;51.570;7.090;2024-03-23T13:06:14;6.27;;;1.47;;
4547;SDS011;2286;51.570;7.090;2024-03-23T13:08:40;5.63;;;1.67;;
4547;SDS011;2286;51.570;7.090;2024-03-23T13:11:08;2.87;;;1.87;;
4547;SDS011;2286;51.570;7.090;2024-03-23T13:13:35;3.03;;;1.80;;
4547;SDS011;2286;51.570;7.090;2024-03-23T13:16:02;3.50;;;1.90;;
4547;SDS011;2286;51.570;7.090;2024-03-23T13:18:29;4.87;;;2.40;;
4547;SDS011;2286;51.570;7.090;2024-03-23T13:20:56;3.10;;;1.87;;
4547;SDS011;2286;51.570;7.090;2024-03-23T13:23:23;5.50;;;2.10;;
4547;SDS011;2286;51.570;7.090;2024-03-23T13:25:50;6.10;;;2.80;;
4547;SDS011;2286;51.570;7.090;2024-03-23T13:28:18;2.73;;;1.63;;
4547;SDS011;2286;51.570;7.090;2024-03-23T13:30:54;3.50;;;1.80;;
4547;SDS011;2286;51.570;7.090;2024-03-23T13:33:21;1.97;;;1.63;;
4547;SDS011;2286;51.570;7.090;2024-03-23T13:35:51;2.30;;;1.47;;
4547;SDS011;2286;51.570;7.090;2024-03-23T13:38:17;4.20;;;1.50;;
4547;SDS011;2286;51.570;7.090;2024-03-23T13:40:55;2.50;;;1.10;;
4547;SDS011;2286;51.570;7.090;2024-03-23T13:43:22;4.03;;;1.70;;
4547;SDS011;2286;51.570;7.090;2024-03-23T13:45:51;5.03;;;1.50;;
4547;SDS011;2286;51.570;7.090;2024-03-23T13:48:19;3.67;;;1.60;;
4547;SDS011;2286;51.570;7.090;2024-03-23T13:50:47;5.67;;;1.47;;
4547;SDS011;2286;51.570;7.090;2024-03-23T13:53:21;4.10;;;1.70;;
4547;SDS011;2286;51.570;7.090;2024-03-23T13:55:49;4.13;;;1.70;;
4547;SDS011;2286;51.570;7.090;2024-03-23T13:58:16;3.30;;;1.90;;
4547;SDS011;2286;51.570;7.090;2024-03-23T14:00:43;2.03;;;1.77;;
4547;SDS011;2286;51.570;7.090;2024-03-23T14:03:10;3.67;;;2.00;;
4547;SDS011;2286;51.570;7.090;2024-03-23T14:05:37;4.00;;;2.40;;
4547;SDS011;2286;51.570;7.090;2024-03-23T14:08:04;6.03;;;2.00;;
4547;SDS011;2286;51.570;7.090;2024-03-23T14:10:31;3.70;;;2.43;;
4547;SDS011;2286;51.570;7.090;2024-03-23T14:12:57;4.33;;;2.17;;
4547;SDS011;2286;51.570;7.090;2024-03-23T14:15:26;6.33;;;2.10;;
4547;SDS011;2286;51.570;7.090;2024-03-23T14:17:53;3.80;;;1.70;;
4547;SDS011;2286;51.570;7.090;2024-03-23T14:20:20;4.07;;;1.70;;
4547;SDS011;2286;51.570;7.090;2024-03-23T14:22:47;3.10;;;1.70;;
4547;SDS011;2286;51.570;7.090;2024-03-23T14:25:13;4.90;;;1.70;;
4547;SDS011;2286;51.570;7.090;2024-03-23T14:27:39;2.90;;;1.70;;
4547;SDS011;2286;51.570;7.090;2024-03-23T14:30:07;4.37;;;1.30;;
4547;SDS011;2286;51.570;7.090;2024-03-23T14:32:35;2.57;;;1.10;;
4547;SDS011;2286;51.570;7.090;2024-03-23T14:35:02;1.90;;;0.90;;
4547;SDS011;2286;51.570;7.090;2024-03-23T14:37:29;5.37;;;1.30;;
4547;SDS011;2286;51.570;7.090;2024-03-23T14:39:56;3.00;;;1.13;;
4547;SDS011;2286;51.570;7.090;2024-03-23T14:42:22;6.20;;;1.13;;
4547;SDS011;2286;51.570;7.090;2024-03-23T14:44:50;3.97;;;1.70;;
4547;SDS011;2286;51.570;7.090;2024-03-23T14:47:16;6.13;;;1.33;;
4547;SDS011;2286;51.570;7.090;2024-03-23T14:49:45;3.33;;;1.40;;
4547;SDS011;2286;51.570;7.090;2024-03-23T14:52:12;3.43;;;1.20;;
4547;SDS011;2286;51.570;7.090;2024-03-23T14:54:39;3.03;;;1.47;;
4547;SDS011;2286;51.570;7.090;2024-03-23T14:57:05;6.97;;;1.87;;
4547;SDS011;2286;51.570;7.090;2024-03-23T14:59:34;3.13;;;1.70;;
4547;SDS011;2286;51.570;7.090;2024-03-23T15:02:00;4.07;;;1.00;;
4547;SDS011;2286;51.570;7.090;2024-03-23T15:04:27;2.27;;;1.00;;
4547;SDS011;2286;51.570;7.090;2024-03-23T15:06:54;5.17;;;1.20;;
4547;SDS011;2286;51.570;7.090;2024-03-23T15:09:21;3.93;;;1.50;;
4547;SDS011;2286;51.570;7.090;2024-03-23T15:11:47;5.17;;;1.53;;
4547;SDS011;2286;51.570;7.090;2024-03-23T15:14:14;2.70;;;1.13;;
4547;SDS011;2286;51.570;7.090;2024-03-23T15:16:40;3.13;;;1.40;;
4547;SDS011;2286;51.570;7.090;2024-03-23T15:19:07;2.73;;;1.27;;
4547;SDS011;2286;51.570;7.090;2024-03-23T15:21:33;6.57;;;1.20;;
4547;SDS011;2286;51.570;7.090;2024-03-23T15:24:02;3.77;;;1.30;;
4547;SDS011;2286;51.570;7.090;2024-03-23T15:26:28;2.87;;;1.80;;
4547;SDS011;2286;51.570;7.090;2024-03-23T15:28:55;1.73;;;1.20;;
4547;SDS011;2286;51.570;7.090;2024-03-23T15:31:36;2.60;;;1.17;;
4547;SDS011;2286;51.570;7.090;2024-03-23T15:34:03;4.03;;;1.30;;
4547;SDS011;2286;51.570;7.090;2024-03-23T15:36:29;3.17;;;1.00;;
4547;SDS011;2286;51.570;7.090;2024-03-23T15:38:56;3.70;;;1.00;;
4547;SDS011;2286;51.570;7.090;2024-03-23T15:41:24;4.90;;;2.03;;
4547;SDS011;2286;51.570;7.090;2024-03-23T15:43:51;2.10;;;1.00;;
4547;SDS011;2286;51.570;7.090;2024-03-23T15:46:17;3.50;;;1.30;;
4547;SDS011;2286;51.570;7.090;2024-03-23T15:48:44;2.50;;;1.13;;
4547;SDS011;2286;51.570;7.090;2024-03-23T15:51:12;5.00;;;1.63;;
4547;SDS011;2286;51.570;7.090;2024-03-23T15:53:39;6.73;;;1.70;;
4547;SDS011;2286;51.570;7.090;2024-03-23T15:56:05;3.70;;;1.10;;
4547;SDS011;2286;51.570;7.090;2024-03-23T15:58:34;3.20;;;1.23;;
4547;SDS011;2286;51.570;7.090;2024-03-23T16:01:00;5.47;;;1.77;;
4547;SDS011;2286;51.570;7.090;2024-03-23T16:03:28;3.93;;;1.40;;
4547;SDS011;2286;51.570;7.090;2024-03-23T16:05:54;2.07;;;1.27;;
4547;SDS011;2286;51.570;7.090;2024-03-23T16:08:22;3.23;;;1.70;;